sensor_id;sensor_type;location;lat;lon;timestamp;P1;durP1;ratioP1;P2;durP2;ratioP2
57191;SDS011;43052;52.588;13.396;2023-05-27T00:01:27;18.65;;;11.77;;
57191;SDS011;43052;52.588;13.396;2023-05-27T00:03:53;26.25;;;12.30;;
57191;SDS011;43052;52.588;13.396;2023-05-27T00:06:18;20.42;;;12.10;;
57191;SDS011;43052;52.588;13.396;2023-05-27T00:08:44;19.85;;;11.77;;
57191;SDS011;43052;52.588;13.396;2023-05-27T00:11:09;18.27;;;12.82;;
57191;SDS011;43052;52.588;13.396;2023-05-27T00:13:34;21.70;;;12.40;;
57191;SDS011;43052;52.588;13.396;2023-05-27T00:16:00;17.73;;;11.38;;
57191;SDS011;43052;52.588;13.396;2023-05-27T00:18:26;20.23;;;11.07;;
57191;SDS011;43052;52.588;13.396;2023-05-27T00:20:51;19.70;;;12.15;;
57191;SDS011;43052;52.588;13.396;2023-05-27T00:23:16;22.10;;;12.02;;
57191;SDS011;43052;52.588;13.396;2023-05-27T00:25:41;17.48;;;11.70;;
57191;SDS011;43052;52.588;13.396;2023-05-27T00:28:07;18.65;;;11.60;;
57191;SDS011;43052;52.588;13.396;2023-05-27T00:30:32;18.67;;;12.15;;
57191;SDS011;43052;52.588;13.396;2023-05-27T00:32:57;15.98;;;10.73;;
57191;SDS011;43052;52.588;13.396;2023-05-27T00:35:23;16.98;;;11.45;;
57191;SDS011;43052;52.588;13.396;2023-05-27T00:37:48;18.58;;;12.25;;
57191;SDS011;43052;52.588;13.396;2023-05-27T00:40:14;18.45;;;11.43;;
57191;SDS011;43052;52.588;13.396;2023-05-27T00:42:40;17.92;;;12.50;;
57191;SDS011;43052;52.588;13.396;2023-05-27T00:45:06;19.10;;;12.07;;
57191;SDS011;43052;52.588;13.396;2023-05-27T00:47:32;18.63;;;11.27;;
57191;SDS011;43052;52.588;13.396;2023-05-27T00:49:58;18.35;;;11.10;;
57191;SDS011;43052;52.588;13.396;2023-05-27T00:52:24;16.35;;;11.52;;
57191;SDS011;43052;52.588;13.396;2023-05-27T00:54:50;19.63;;;11.27;;
57191;SDS011;43052;52.588;13.396;2023-05-27T00:57:16;20.75;;;11.00;;
57191;SDS011;43052;52.588;13.396;2023-05-27T00:59:42;19.17;;;11.65;;
57191;SDS011;43052;52.588;13.396;2023-05-27T01:02:07;18.08;;;10.75;;
57191;SDS011;43052;52.588;13.396;2023-05-27T01:04:32;15.35;;;10.63;;
57191;SDS011;43052;52.588;13.396;2023-05-27T01:07:03;18.85;;;11.00;;
57191;SDS011;43052;52.588;13.396;2023-05-27T01:09:44;14.68;;;10.48;;
57191;SDS011;43052;52.588;13.396;2023-05-27T01:15:00;16.40;;;10.20;;
57191;SDS011;43052;52.588;13.396;2023-05-27T01:17:28;19.17;;;11.52;;
57191;SDS011;43052;52.588;13.396;2023-05-27T01:19:57;16.73;;;10.70;;
57191;SDS011;43052;52.588;13.396;2023-05-27T01:22:30;17.73;;;11.02;;
57191;SDS011;43052;52.588;13.396;2023-05-27T01:24:56;15.27;;;9.55;;
57191;SDS011;43052;52.588;13.396;2023-05-27T01:27:22;16.95;;;10.23;;
57191;SDS011;43052;52.588;13.396;2023-05-27T01:29:50;16.13;;;9.82;;
57191;SDS011;43052;52.588;13.396;2023-05-27T01:32:17;15.25;;;9.98;;
57191;SDS011;43052;52.588;13.396;2023-05-27T01:34:47;17.17;;;9.80;;
57191;SDS011;43052;52.588;13.396;2023-05-27T01:37:20;16.27;;;10.90;;
57191;SDS011;43052;52.588;13.396;2023-05-27T01:39:49;16.70;;;9.82;;
57191;SDS011;43052;52.588;13.396;2023-05-27T01:42:15;18.70;;;11.02;;
57191;SDS011;43052;52.588;13.396;2023-05-27T01:44:41;17.45;;;11.07;;
57191;SDS011;43052;52.588;13.396;2023-05-27T01:47:07;14.77;;;9.60;;
57191;SDS011;43052;52.588;13.396;2023-05-27T01:52:18;15.85;;;9.40;;
57191;SDS011;43052;52.588;13.396;2023-05-27T01:54:43;17.00;;;9.50;;
57191;SDS011;43052;52.588;13.396;2023-05-27T01:57:08;18.15;;;10.13;;
57191;SDS011;43052;52.588;13.396;2023-05-27T01:59:33;14.27;;;9.52;;
57191;SDS011;43052;52.588;13.396;2023-05-27T02:01:59;14.10;;;9.57;;
57191;SDS011;43052;52.588;13.396;2023-05-27T02:04:24;16.48;;;10.23;;
57191;SDS011;43052;52.588;13.396;2023-05-27T02:06:49;18.33;;;9.77;;
57191;SDS011;43052;52.588;13.396;2023-05-27T02:09:14;22.92;;;11.20;;
57191;SDS011;43052;52.588;13.396;2023-05-27T02:11:40;16.05;;;9.65;;
57191;SDS011;43052;52.588;13.396;2023-05-27T02:14:05;17.50;;;9.32;;
57191;SDS011;43052;52.588;13.396;2023-05-27T02:16:32;16.10;;;9.95;;
57191;SDS011;43052;52.588;13.396;2023-05-27T02:18:58;16.52;;;10.00;;
57191;SDS011;43052;52.588;13.396;2023-05-27T02:21:27;15.50;;;10.27;;
57191;SDS011;43052;52.588;13.396;2023-05-27T02:23:52;14.35;;;9.15;;
57191;SDS011;43052;52.588;13.396;2023-05-27T02:26:17;18.95;;;10.10;;
57191;SDS011;43052;52.588;13.396;2023-05-27T02:28:43;15.00;;;9.82;;
57191;SDS011;43052;52.588;13.396;2023-05-27T02:31:08;16.88;;;9.68;;
57191;SDS011;43052;52.588;13.396;2023-05-27T02:33:33;13.48;;;9.13;;
57191;SDS011;43052;52.588;13.396;2023-05-27T02:35:59;18.58;;;10.18;;
57191;SDS011;43052;52.588;13.396;2023-05-27T02:38:24;15.85;;;9.50;;
57191;SDS011;43052;52.588;13.396;2023-05-27T02:40:50;17.90;;;9.45;;
57191;SDS011;43052;52.588;13.396;2023-05-27T02:43:15;15.93;;;10.05;;
57191;SDS011;43052;52.588;13.396;2023-05-27T02:45:41;17.52;;;10.45;;
57191;SDS011;43052;52.588;13.396;2023-05-27T02:48:07;19.75;;;10.55;;
57191;SDS011;43052;52.588;13.396;2023-05-27T02:50:33;17.60;;;10.45;;
57191;SDS011;43052;52.588;13.396;2023-05-27T02:52:58;16.38;;;8.93;;
57191;SDS011;43052;52.588;13.396;2023-05-27T02:55:23;17.10;;;10.23;;
57191;SDS011;43052;52.588;13.396;2023-05-27T02:57:49;15.02;;;9.23;;
57191;SDS011;43052;52.588;13.396;2023-05-27T03:00:15;16.90;;;10.55;;
57191;SDS011;43052;52.588;13.396;2023-05-27T03:02:40;20.08;;;10.45;;
57191;SDS011;43052;52.588;13.396;2023-05-27T03:05:05;14.57;;;9.30;;
57191;SDS011;43052;52.588;13.396;2023-05-27T03:07:31;14.82;;;9.63;;
57191;SDS011;43052;52.588;13.396;2023-05-27T03:09:56;18.23;;;10.32;;
57191;SDS011;43052;52.588;13.396;2023-05-27T03:12:22;17.15;;;9.77;;
57191;SDS011;43052;52.588;13.396;2023-05-27T03:14:48;15.10;;;10.20;;
57191;SDS011;43052;52.588;13.396;2023-05-27T03:17:14;17.02;;;9.60;;
57191;SDS011;43052;52.588;13.396;2023-05-27T03:19:39;14.90;;;9.88;;
57191;SDS011;43052;52.588;13.396;2023-05-27T03:22:05;19.48;;;10.43;;
57191;SDS011;43052;52.588;13.396;2023-05-27T03:24:31;16.52;;;10.00;;
57191;SDS011;43052;52.588;13.396;2023-05-27T03:26:57;18.85;;;10.05;;
57191;SDS011;43052;52.588;13.396;2023-05-27T03:29:22;17.17;;;9.77;;
57191;SDS011;43052;52.588;13.396;2023-05-27T03:31:47;18.50;;;9.60;;
57191;SDS011;43052;52.588;13.396;2023-05-27T03:34:13;16.77;;;9.07;;
57191;SDS011;43052;52.588;13.396;2023-05-27T03:36:38;15.57;;;8.90;;
57191;SDS011;43052;52.588;13.396;2023-05-27T03:39:03;16.50;;;9.55;;
57191;SDS011;43052;52.588;13.396;2023-05-27T03:41:29;18.83;;;9.50;;
57191;SDS011;43052;52.588;13.396;2023-05-27T03:43:55;15.80;;;9.18;;
57191;SDS011;43052;52.588;13.396;2023-05-27T03:46:21;16.35;;;9.50;;
57191;SDS011;43052;52.588;13.396;2023-05-27T03:48:46;15.77;;;8.77;;
57191;SDS011;43052;52.588;13.396;2023-05-27T03:51:11;16.05;;;8.68;;
57191;SDS011;43052;52.588;13.396;2023-05-27T03:53:36;17.35;;;8.30;;
57191;SDS011;43052;52.588;13.396;2023-05-27T03:56:02;14.02;;;7.72;;
57191;SDS011;43052;52.588;13.396;2023-05-27T03:58:27;12.88;;;8.05;;
57191;SDS011;43052;52.588;13.396;2023-05-27T04:00:52;15.57;;;8.43;;
57191;SDS011;43052;52.588;13.396;2023-05-27T04:03:17;14.07;;;8.15;;
57191;SDS011;43052;52.588;13.396;2023-05-27T04:05:43;14.32;;;7.93;;
57191;SDS011;43052;52.588;13.396;2023-05-27T04:08:08;13.60;;;7.32;;
57191;SDS011;43052;52.588;13.396;2023-05-27T04:10:33;12.35;;;7.03;;
57191;SDS011;43052;52.588;13.396;2023-05-27T04:12:58;11.68;;;6.40;;
57191;SDS011;43052;52.588;13.396;2023-05-27T04:15:24;10.82;;;6.22;;
57191;SDS011;43052;52.588;13.396;2023-05-27T04:17:51;11.18;;;5.65;;
57191;SDS011;43052;52.588;13.396;2023-05-27T04:20:16;12.48;;;6.22;;
57191;SDS011;43052;52.588;13.396;2023-05-27T04:22:42;8.43;;;5.13;;
57191;SDS011;43052;52.588;13.396;2023-05-27T04:25:07;13.07;;;5.88;;
57191;SDS011;43052;52.588;13.396;2023-05-27T04:27:33;9.63;;;5.55;;
57191;SDS011;43052;52.588;13.396;2023-05-27T04:29:58;12.88;;;5.35;;
57191;SDS011;43052;52.588;13.396;2023-05-27T04:32:24;9.90;;;5.45;;
57191;SDS011;43052;52.588;13.396;2023-05-27T04:34:52;12.27;;;5.38;;
57191;SDS011;43052;52.588;13.396;2023-05-27T04:37:17;10.88;;;5.00;;
57191;SDS011;43052;52.588;13.396;2023-05-27T04:39:44;9.45;;;4.50;;
57191;SDS011;43052;52.588;13.396;2023-05-27T04:42:11;9.88;;;4.45;;
57191;SDS011;43052;52.588;13.396;2023-05-27T04:44:37;10.88;;;4.88;;
57191;SDS011;43052;52.588;13.396;2023-05-27T04:47:03;8.68;;;4.68;;
57191;SDS011;43052;52.588;13.396;2023-05-27T04:49:29;10.18;;;4.40;;
57191;SDS011;43052;52.588;13.396;2023-05-27T04:51:55;8.95;;;4.68;;
57191;SDS011;43052;52.588;13.396;2023-05-27T04:54:20;11.98;;;4.75;;
57191;SDS011;43052;52.588;13.396;2023-05-27T04:56:46;9.23;;;5.03;;
57191;SDS011;43052;52.588;13.396;2023-05-27T04:59:11;12.55;;;5.03;;
57191;SDS011;43052;52.588;13.396;2023-05-27T05:01:41;9.15;;;4.38;;
57191;SDS011;43052;52.588;13.396;2023-05-27T05:04:33;9.13;;;4.50;;
57191;SDS011;43052;52.588;13.396;2023-05-27T05:06:59;14.45;;;5.43;;
57191;SDS011;43052;52.588;13.396;2023-05-27T05:09:24;11.40;;;4.63;;
57191;SDS011;43052;52.588;13.396;2023-05-27T05:11:49;9.23;;;4.40;;
57191;SDS011;43052;52.588;13.396;2023-05-27T05:14:15;10.00;;;4.72;;
57191;SDS011;43052;52.588;13.396;2023-05-27T05:16:40;11.32;;;4.97;;
57191;SDS011;43052;52.588;13.396;2023-05-27T05:19:05;11.05;;;5.30;;
57191;SDS011;43052;52.588;13.396;2023-05-27T05:21:30;11.93;;;5.40;;
57191;SDS011;43052;52.588;13.396;2023-05-27T05:23:56;9.35;;;4.60;;
57191;SDS011;43052;52.588;13.396;2023-05-27T05:26:21;11.40;;;5.10;;
57191;SDS011;43052;52.588;13.396;2023-05-27T05:28:46;9.68;;;4.70;;
57191;SDS011;43052;52.588;13.396;2023-05-27T05:31:11;9.40;;;4.78;;
57191;SDS011;43052;52.588;13.396;2023-05-27T05:33:37;8.20;;;4.72;;
57191;SDS011;43052;52.588;13.396;2023-05-27T05:36:02;9.18;;;4.20;;
57191;SDS011;43052;52.588;13.396;2023-05-27T05:38:28;10.57;;;4.63;;
57191;SDS011;43052;52.588;13.396;2023-05-27T05:40:54;9.10;;;4.50;;
57191;SDS011;43052;52.588;13.396;2023-05-27T05:43:20;8.65;;;4.20;;
57191;SDS011;43052;52.588;13.396;2023-05-27T05:45:45;8.45;;;3.90;;
57191;SDS011;43052;52.588;13.396;2023-05-27T05:48:11;8.02;;;4.10;;
57191;SDS011;43052;52.588;13.396;2023-05-27T05:50:36;9.85;;;4.30;;
57191;SDS011;43052;52.588;13.396;2023-05-27T05:53:01;9.43;;;4.07;;
57191;SDS011;43052;52.588;13.396;2023-05-27T05:55:26;9.70;;;3.97;;
57191;SDS011;43052;52.588;13.396;2023-05-27T05:57:52;8.07;;;3.87;;
57191;SDS011;43052;52.588;13.396;2023-05-27T06:00:17;5.93;;;3.37;;
57191;SDS011;43052;52.588;13.396;2023-05-27T06:02:43;8.77;;;3.65;;
57191;SDS011;43052;52.588;13.396;2023-05-27T06:05:08;7.30;;;3.38;;
57191;SDS011;43052;52.588;13.396;2023-05-27T06:07:33;8.27;;;3.28;;
57191;SDS011;43052;52.588;13.396;2023-05-27T06:09:59;5.63;;;3.13;;
57191;SDS011;43052;52.588;13.396;2023-05-27T06:12:24;6.70;;;2.92;;
57191;SDS011;43052;52.588;13.396;2023-05-27T06:14:50;6.72;;;2.60;;
57191;SDS011;43052;52.588;13.396;2023-05-27T06:17:15;6.97;;;2.70;;
57191;SDS011;43052;52.588;13.396;2023-05-27T06:19:40;5.75;;;2.38;;
57191;SDS011;43052;52.588;13.396;2023-05-27T06:22:06;5.47;;;2.30;;
57191;SDS011;43052;52.588;13.396;2023-05-27T06:24:31;3.30;;;1.80;;
57191;SDS011;43052;52.588;13.396;2023-05-27T06:26:56;4.43;;;2.15;;
57191;SDS011;43052;52.588;13.396;2023-05-27T06:29:22;3.73;;;1.97;;
57191;SDS011;43052;52.588;13.396;2023-05-27T06:31:47;3.72;;;1.70;;
57191;SDS011;43052;52.588;13.396;2023-05-27T06:34:13;2.63;;;1.50;;
57191;SDS011;43052;52.588;13.396;2023-05-27T06:36:38;3.35;;;1.50;;
57191;SDS011;43052;52.588;13.396;2023-05-27T06:39:03;3.00;;;1.60;;
57191;SDS011;43052;52.588;13.396;2023-05-27T06:41:29;4.60;;;2.10;;
57191;SDS011;43052;52.588;13.396;2023-05-27T06:43:54;2.97;;;1.80;;
57191;SDS011;43052;52.588;13.396;2023-05-27T06:46:19;5.38;;;2.00;;
57191;SDS011;43052;52.588;13.396;2023-05-27T06:48:44;3.67;;;1.70;;
57191;SDS011;43052;52.588;13.396;2023-05-27T06:51:10;4.17;;;1.90;;
57191;SDS011;43052;52.588;13.396;2023-05-27T06:53:35;2.47;;;1.70;;
57191;SDS011;43052;52.588;13.396;2023-05-27T06:56:00;1.85;;;1.50;;
57191;SDS011;43052;52.588;13.396;2023-05-27T06:58:25;3.13;;;1.70;;
57191;SDS011;43052;52.588;13.396;2023-05-27T07:00:51;4.50;;;1.70;;
57191;SDS011;43052;52.588;13.396;2023-05-27T07:03:16;2.87;;;1.30;;
57191;SDS011;43052;52.588;13.396;2023-05-27T07:05:41;2.23;;;1.30;;
57191;SDS011;43052;52.588;13.396;2023-05-27T07:08:06;2.73;;;1.47;;
57191;SDS011;43052;52.588;13.396;2023-05-27T07:10:32;1.50;;;1.40;;
57191;SDS011;43052;52.588;13.396;2023-05-27T07:12:57;2.15;;;1.40;;
57191;SDS011;43052;52.588;13.396;2023-05-27T07:15:22;2.93;;;1.57;;
57191;SDS011;43052;52.588;13.396;2023-05-27T07:17:47;3.57;;;1.60;;
57191;SDS011;43052;52.588;13.396;2023-05-27T07:20:13;3.53;;;2.10;;
57191;SDS011;43052;52.588;13.396;2023-05-27T07:22:38;3.53;;;1.80;;
57191;SDS011;43052;52.588;13.396;2023-05-27T07:25:03;4.33;;;1.70;;
57191;SDS011;43052;52.588;13.396;2023-05-27T07:27:29;3.17;;;1.58;;
57191;SDS011;43052;52.588;13.396;2023-05-27T07:29:54;7.40;;;2.30;;
57191;SDS011;43052;52.588;13.396;2023-05-27T07:32:19;2.90;;;1.50;;
57191;SDS011;43052;52.588;13.396;2023-05-27T07:34:45;2.53;;;1.58;;
57191;SDS011;43052;52.588;13.396;2023-05-27T07:37:10;2.97;;;1.57;;
57191;SDS011;43052;52.588;13.396;2023-05-27T07:39:35;4.67;;;1.90;;
57191;SDS011;43052;52.588;13.396;2023-05-27T07:42:00;2.37;;;1.53;;
57191;SDS011;43052;52.588;13.396;2023-05-27T07:44:26;2.67;;;1.57;;
57191;SDS011;43052;52.588;13.396;2023-05-27T07:46:52;4.45;;;1.73;;
57191;SDS011;43052;52.588;13.396;2023-05-27T07:49:18;1.90;;;1.50;;
57191;SDS011;43052;52.588;13.396;2023-05-27T07:51:43;2.78;;;1.40;;
57191;SDS011;43052;52.588;13.396;2023-05-27T07:54:08;1.77;;;1.50;;
57191;SDS011;43052;52.588;13.396;2023-05-27T07:56:34;2.97;;;1.67;;
57191;SDS011;43052;52.588;13.396;2023-05-27T07:58:59;3.67;;;1.80;;
57191;SDS011;43052;52.588;13.396;2023-05-27T08:01:25;2.45;;;1.50;;
57191;SDS011;43052;52.588;13.396;2023-05-27T08:03:55;2.13;;;1.42;;
57191;SDS011;43052;52.588;13.396;2023-05-27T08:06:20;1.77;;;1.50;;
57191;SDS011;43052;52.588;13.396;2023-05-27T08:08:46;1.87;;;1.30;;
57191;SDS011;43052;52.588;13.396;2023-05-27T08:11:12;2.10;;;1.52;;
57191;SDS011;43052;52.588;13.396;2023-05-27T08:13:37;2.17;;;1.50;;
57191;SDS011;43052;52.588;13.396;2023-05-27T08:16:03;2.00;;;1.30;;
57191;SDS011;43052;52.588;13.396;2023-05-27T08:18:28;3.78;;;2.20;;
57191;SDS011;43052;52.588;13.396;2023-05-27T08:20:53;1.50;;;1.30;;
57191;SDS011;43052;52.588;13.396;2023-05-27T08:23:19;2.20;;;1.37;;
57191;SDS011;43052;52.588;13.396;2023-05-27T08:25:44;1.70;;;1.50;;
57191;SDS011;43052;52.588;13.396;2023-05-27T08:28:09;3.05;;;1.55;;
57191;SDS011;43052;52.588;13.396;2023-05-27T08:30:35;3.10;;;1.50;;
57191;SDS011;43052;52.588;13.396;2023-05-27T08:33:00;1.40;;;1.30;;
57191;SDS011;43052;52.588;13.396;2023-05-27T08:35:25;1.42;;;1.30;;
57191;SDS011;43052;52.588;13.396;2023-05-27T08:37:51;2.05;;;1.50;;
57191;SDS011;43052;52.588;13.396;2023-05-27T08:40:18;1.58;;;1.40;;
57191;SDS011;43052;52.588;13.396;2023-05-27T08:42:45;1.52;;;1.30;;
57191;SDS011;43052;52.588;13.396;2023-05-27T08:45:11;3.08;;;1.45;;
57191;SDS011;43052;52.588;13.396;2023-05-27T08:47:37;2.72;;;1.50;;
57191;SDS011;43052;52.588;13.396;2023-05-27T08:50:03;2.50;;;1.50;;
57191;SDS011;43052;52.588;13.396;2023-05-27T08:52:29;1.63;;;1.40;;
57191;SDS011;43052;52.588;13.396;2023-05-27T08:55:00;1.77;;;1.52;;
57191;SDS011;43052;52.588;13.396;2023-05-27T08:57:27;3.92;;;1.80;;
57191;SDS011;43052;52.588;13.396;2023-05-27T08:59:55;1.85;;;1.30;;
57191;SDS011;43052;52.588;13.396;2023-05-27T09:02:36;2.38;;;1.73;;
57191;SDS011;43052;52.588;13.396;2023-05-27T09:05:01;1.90;;;1.40;;
57191;SDS011;43052;52.588;13.396;2023-05-27T09:07:27;2.22;;;1.55;;
57191;SDS011;43052;52.588;13.396;2023-05-27T09:09:58;2.43;;;1.80;;
57191;SDS011;43052;52.588;13.396;2023-05-27T09:12:24;2.08;;;1.40;;
57191;SDS011;43052;52.588;13.396;2023-05-27T09:14:51;1.42;;;1.33;;
57191;SDS011;43052;52.588;13.396;2023-05-27T09:17:16;1.50;;;1.40;;
57191;SDS011;43052;52.588;13.396;2023-05-27T09:19:41;1.75;;;1.50;;
57191;SDS011;43052;52.588;13.396;2023-05-27T09:22:08;1.95;;;1.40;;
57191;SDS011;43052;52.588;13.396;2023-05-27T09:24:34;2.42;;;1.50;;
57191;SDS011;43052;52.588;13.396;2023-05-27T09:26:59;1.83;;;1.33;;
57191;SDS011;43052;52.588;13.396;2023-05-27T09:29:25;2.45;;;1.60;;
57191;SDS011;43052;52.588;13.396;2023-05-27T09:31:54;3.33;;;1.70;;
57191;SDS011;43052;52.588;13.396;2023-05-27T09:34:20;1.98;;;1.70;;
57191;SDS011;43052;52.588;13.396;2023-05-27T09:36:46;2.85;;;1.67;;
57191;SDS011;43052;52.588;13.396;2023-05-27T09:39:13;2.42;;;1.42;;
57191;SDS011;43052;52.588;13.396;2023-05-27T09:41:40;2.10;;;1.90;;
57191;SDS011;43052;52.588;13.396;2023-05-27T09:44:05;1.70;;;1.60;;
57191;SDS011;43052;52.588;13.396;2023-05-27T09:46:32;3.53;;;1.60;;
57191;SDS011;43052;52.588;13.396;2023-05-27T09:48:58;4.63;;;2.08;;
57191;SDS011;43052;52.588;13.396;2023-05-27T09:51:25;1.80;;;1.52;;
57191;SDS011;43052;52.588;13.396;2023-05-27T09:53:52;1.77;;;1.50;;
57191;SDS011;43052;52.588;13.396;2023-05-27T09:56:21;1.70;;;1.60;;
57191;SDS011;43052;52.588;13.396;2023-05-27T09:58:48;2.30;;;1.70;;
57191;SDS011;43052;52.588;13.396;2023-05-27T10:01:14;1.65;;;1.55;;
57191;SDS011;43052;52.588;13.396;2023-05-27T10:03:39;2.38;;;1.60;;
57191;SDS011;43052;52.588;13.396;2023-05-27T10:06:09;2.13;;;1.60;;
57191;SDS011;43052;52.588;13.396;2023-05-27T10:08:41;3.50;;;1.65;;
57191;SDS011;43052;52.588;13.396;2023-05-27T10:11:09;2.15;;;1.70;;
57191;SDS011;43052;52.588;13.396;2023-05-27T10:13:35;3.10;;;1.80;;
57191;SDS011;43052;52.588;13.396;2023-05-27T10:16:01;2.33;;;1.70;;
57191;SDS011;43052;52.588;13.396;2023-05-27T10:18:27;2.08;;;1.60;;
57191;SDS011;43052;52.588;13.396;2023-05-27T10:20:56;3.22;;;2.50;;
57191;SDS011;43052;52.588;13.396;2023-05-27T10:23:27;2.63;;;1.70;;
57191;SDS011;43052;52.588;13.396;2023-05-27T10:26:06;2.55;;;1.50;;
57191;SDS011;43052;52.588;13.396;2023-05-27T10:28:36;5.25;;;1.98;;
57191;SDS011;43052;52.588;13.396;2023-05-27T10:31:05;2.67;;;1.73;;
57191;SDS011;43052;52.588;13.396;2023-05-27T10:33:33;5.28;;;1.90;;
57191;SDS011;43052;52.588;13.396;2023-05-27T10:36:10;2.15;;;1.80;;
57191;SDS011;43052;52.588;13.396;2023-05-27T10:38:36;3.55;;;1.58;;
57191;SDS011;43052;52.588;13.396;2023-05-27T10:41:04;2.13;;;1.42;;
57191;SDS011;43052;52.588;13.396;2023-05-27T10:43:31;3.28;;;1.67;;
57191;SDS011;43052;52.588;13.396;2023-05-27T10:46:04;2.50;;;1.63;;
57191;SDS011;43052;52.588;13.396;2023-05-27T10:48:32;2.17;;;1.48;;
57191;SDS011;43052;52.588;13.396;2023-05-27T10:50:58;4.63;;;1.60;;
57191;SDS011;43052;52.588;13.396;2023-05-27T10:53:27;3.25;;;1.65;;
57191;SDS011;43052;52.588;13.396;2023-05-27T10:55:53;3.25;;;1.65;;
57191;SDS011;43052;52.588;13.396;2023-05-27T10:58:22;2.55;;;1.60;;
57191;SDS011;43052;52.588;13.396;2023-05-27T11:00:48;3.42;;;1.73;;
57191;SDS011;43052;52.588;13.396;2023-05-27T11:03:26;2.60;;;1.55;;
57191;SDS011;43052;52.588;13.396;2023-05-27T11:06:00;3.13;;;1.63;;
57191;SDS011;43052;52.588;13.396;2023-05-27T11:08:26;1.65;;;1.50;;
57191;SDS011;43052;52.588;13.396;2023-05-27T11:11:03;2.80;;;1.40;;
57191;SDS011;43052;52.588;13.396;2023-05-27T11:13:33;3.83;;;1.83;;
57191;SDS011;43052;52.588;13.396;2023-05-27T11:16:00;5.57;;;1.70;;
57191;SDS011;43052;52.588;13.396;2023-05-27T11:18:34;3.22;;;1.60;;
57191;SDS011;43052;52.588;13.396;2023-05-27T11:21:03;2.47;;;1.60;;
57191;SDS011;43052;52.588;13.396;2023-05-27T11:28:46;3.00;;;1.70;;
57191;SDS011;43052;52.588;13.396;2023-05-27T11:31:19;2.22;;;1.60;;
57191;SDS011;43052;52.588;13.396;2023-05-27T11:33:45;3.88;;;1.75;;
57191;SDS011;43052;52.588;13.396;2023-05-27T11:36:13;3.65;;;1.70;;
57191;SDS011;43052;52.588;13.396;2023-05-27T11:38:48;3.63;;;1.75;;
57191;SDS011;43052;52.588;13.396;2023-05-27T11:41:21;3.30;;;1.40;;
57191;SDS011;43052;52.588;13.396;2023-05-27T11:44:03;3.58;;;1.70;;
57191;SDS011;43052;52.588;13.396;2023-05-27T11:46:34;4.45;;;2.08;;
57191;SDS011;43052;52.588;13.396;2023-05-27T11:49:00;4.15;;;1.90;;
57191;SDS011;43052;52.588;13.396;2023-05-27T11:51:27;3.28;;;1.88;;
57191;SDS011;43052;52.588;13.396;2023-05-27T11:53:55;4.30;;;1.70;;
57191;SDS011;43052;52.588;13.396;2023-05-27T11:56:21;2.60;;;1.70;;
57191;SDS011;43052;52.588;13.396;2023-05-27T11:58:46;2.40;;;1.70;;
57191;SDS011;43052;52.588;13.396;2023-05-27T12:01:11;6.68;;;2.00;;
57191;SDS011;43052;52.588;13.396;2023-05-27T12:03:37;3.63;;;2.00;;
57191;SDS011;43052;52.588;13.396;2023-05-27T12:06:02;3.22;;;1.80;;
57191;SDS011;43052;52.588;13.396;2023-05-27T12:08:28;3.67;;;1.60;;
57191;SDS011;43052;52.588;13.396;2023-05-27T12:10:53;4.00;;;1.77;;
57191;SDS011;43052;52.588;13.396;2023-05-27T12:13:19;4.00;;;1.70;;
57191;SDS011;43052;52.588;13.396;2023-05-27T12:15:46;3.85;;;1.80;;
57191;SDS011;43052;52.588;13.396;2023-05-27T12:18:13;3.15;;;1.65;;
57191;SDS011;43052;52.588;13.396;2023-05-27T12:20:38;3.10;;;1.42;;
57191;SDS011;43052;52.588;13.396;2023-05-27T12:23:04;3.22;;;1.60;;
57191;SDS011;43052;52.588;13.396;2023-05-27T12:25:30;2.60;;;1.60;;
57191;SDS011;43052;52.588;13.396;2023-05-27T12:27:55;2.85;;;1.73;;
57191;SDS011;43052;52.588;13.396;2023-05-27T12:30:21;3.15;;;1.55;;
57191;SDS011;43052;52.588;13.396;2023-05-27T12:32:46;2.88;;;1.50;;
57191;SDS011;43052;52.588;13.396;2023-05-27T12:35:11;1.85;;;1.30;;
57191;SDS011;43052;52.588;13.396;2023-05-27T12:37:36;3.13;;;1.60;;
57191;SDS011;43052;52.588;13.396;2023-05-27T12:40:02;4.35;;;1.95;;
57191;SDS011;43052;52.588;13.396;2023-05-27T12:42:29;2.25;;;1.55;;
57191;SDS011;43052;52.588;13.396;2023-05-27T12:44:55;3.78;;;1.70;;
57191;SDS011;43052;52.588;13.396;2023-05-27T12:47:20;3.13;;;1.88;;
57191;SDS011;43052;52.588;13.396;2023-05-27T12:49:45;2.85;;;1.50;;
57191;SDS011;43052;52.588;13.396;2023-05-27T12:52:11;4.68;;;1.45;;
57191;SDS011;43052;52.588;13.396;2023-05-27T12:54:36;2.42;;;1.40;;
57191;SDS011;43052;52.588;13.396;2023-05-27T12:57:02;2.35;;;1.52;;
57191;SDS011;43052;52.588;13.396;2023-05-27T12:59:30;4.03;;;1.45;;
57191;SDS011;43052;52.588;13.396;2023-05-27T13:01:55;3.15;;;1.50;;
57191;SDS011;43052;52.588;13.396;2023-05-27T13:04:20;3.50;;;1.60;;
57191;SDS011;43052;52.588;13.396;2023-05-27T13:06:45;3.13;;;1.60;;
57191;SDS011;43052;52.588;13.396;2023-05-27T13:09:11;4.88;;;1.70;;
57191;SDS011;43052;52.588;13.396;2023-05-27T13:11:37;3.72;;;1.80;;
57191;SDS011;43052;52.588;13.396;2023-05-27T13:14:03;4.30;;;1.70;;
57191;SDS011;43052;52.588;13.396;2023-05-27T13:16:28;5.10;;;1.70;;
57191;SDS011;43052;52.588;13.396;2023-05-27T13:18:55;4.40;;;2.00;;
57191;SDS011;43052;52.588;13.396;2023-05-27T13:21:20;2.50;;;1.50;;
57191;SDS011;43052;52.588;13.396;2023-05-27T13:24:40;3.10;;;1.73;;
57191;SDS011;43052;52.588;13.396;2023-05-27T13:27:07;2.83;;;1.85;;
57191;SDS011;43052;52.588;13.396;2023-05-27T13:29:33;3.13;;;1.88;;
57191;SDS011;43052;52.588;13.396;2023-05-27T13:31:58;3.55;;;1.80;;
57191;SDS011;43052;52.588;13.396;2023-05-27T13:34:24;1.90;;;1.33;;
57191;SDS011;43052;52.588;13.396;2023-05-27T13:36:49;5.18;;;1.90;;
57191;SDS011;43052;52.588;13.396;2023-05-27T13:39:14;1.70;;;1.40;;
57191;SDS011;43052;52.588;13.396;2023-05-27T13:41:39;3.67;;;1.50;;
57191;SDS011;43052;52.588;13.396;2023-05-27T13:44:05;3.33;;;1.40;;
57191;SDS011;43052;52.588;13.396;2023-05-27T13:46:30;4.18;;;1.80;;
57191;SDS011;43052;52.588;13.396;2023-05-27T13:48:55;3.25;;;1.45;;
57191;SDS011;43052;52.588;13.396;2023-05-27T13:51:21;3.40;;;1.60;;
57191;SDS011;43052;52.588;13.396;2023-05-27T13:53:46;3.20;;;1.98;;
57191;SDS011;43052;52.588;13.396;2023-05-27T13:56:13;2.85;;;1.60;;
57191;SDS011;43052;52.588;13.396;2023-05-27T13:58:38;6.70;;;1.75;;
57191;SDS011;43052;52.588;13.396;2023-05-27T14:08:19;3.50;;;1.48;;
57191;SDS011;43052;52.588;13.396;2023-05-27T14:11:29;1.80;;;1.20;;
57191;SDS011;43052;52.588;13.396;2023-05-27T14:16:59;3.15;;;1.45;;
57191;SDS011;43052;52.588;13.396;2023-05-27T14:34:48;3.55;;;1.25;;
57191;SDS011;43052;52.588;13.396;2023-05-27T14:44:02;3.05;;;1.30;;
57191;SDS011;43052;52.588;13.396;2023-05-27T14:46:30;2.80;;;1.40;;
57191;SDS011;43052;52.588;13.396;2023-05-27T15:22:39;2.63;;;1.63;;
57191;SDS011;43052;52.588;13.396;2023-05-27T15:25:04;3.47;;;1.60;;
57191;SDS011;43052;52.588;13.396;2023-05-27T15:27:30;6.45;;;3.47;;
57191;SDS011;43052;52.588;13.396;2023-05-27T15:29:56;4.00;;;1.73;;
57191;SDS011;43052;52.588;13.396;2023-05-27T15:32:21;2.90;;;1.30;;
57191;SDS011;43052;52.588;13.396;2023-05-27T15:34:46;3.47;;;1.30;;
57191;SDS011;43052;52.588;13.396;2023-05-27T15:37:12;1.88;;;1.10;;
57191;SDS011;43052;52.588;13.396;2023-05-27T15:39:38;2.10;;;1.17;;
57191;SDS011;43052;52.588;13.396;2023-05-27T15:42:03;2.22;;;1.50;;